Terminal Aerodrome Forecast
Issued by NWS

Home | Current Version | Previous Version | Text Only | Print | Product List | Glossary On
Versions: 1 2 3 4 5 6 7 8 9 10 11 12 13 14 15 16 17 18 19
000
FTUS46 KSEW 251700
TAFBLI
TAF
KBLI 251728Z 2518/2618 00000KT 2SM -RA BR BKN003 OVC060
     FM260200 14005KT 2SM -RA BR OVC007
     FM261100 17010G17KT 2SM -RA BR OVC007
     FM261700 18010KT 4SM -RA OVC015=

USA.gov is the U.S. government's official web portal to all federal, state and local government web resources and services.